sensor_id;sensor_type;location;lat;lon;timestamp;P1;durP1;ratioP1;P2;durP2;ratioP2
53867;SDS011;41577;47.470;19.080;2023-03-25T00:00:15;5.70;;;1.88;;
53867;SDS011;41577;47.470;19.080;2023-03-25T00:00:29;4.93;;;1.83;;
53867;SDS011;41577;47.470;19.080;2023-03-25T00:00:43;6.40;;;1.88;;
53867;SDS011;41577;47.470;19.080;2023-03-25T00:00:58;6.15;;;1.75;;
53867;SDS011;41577;47.470;19.080;2023-03-25T00:01:15;4.72;;;1.73;;
53867;SDS011;41577;47.470;19.080;2023-03-25T00:01:29;3.38;;;2.10;;
53867;SDS011;41577;47.470;19.080;2023-03-25T00:01:45;3.10;;;2.20;;
53867;SDS011;41577;47.470;19.080;2023-03-25T00:02:00;3.67;;;2.17;;
53867;SDS011;41577;47.470;19.080;2023-03-25T00:02:13;3.53;;;2.13;;
53867;SDS011;41577;47.470;19.080;2023-03-25T00:02:29;4.53;;;2.30;;
53867;SDS011;41577;47.470;19.080;2023-03-25T00:02:42;4.57;;;2.30;;
53867;SDS011;41577;47.470;19.080;2023-03-25T00:02:55;3.72;;;2.15;;
53867;SDS011;41577;47.470;19.080;2023-03-25T00:03:08;5.25;;;1.98;;
53867;SDS011;41577;47.470;19.080;2023-03-25T00:03:21;4.90;;;1.67;;
53867;SDS011;41577;47.470;19.080;2023-03-25T00:03:35;2.88;;;1.58;;
53867;SDS011;41577;47.470;19.080;2023-03-25T00:03:47;3.65;;;1.73;;
53867;SDS011;41577;47.470;19.080;2023-03-25T00:04:01;3.67;;;1.80;;
53867;SDS011;41577;47.470;19.080;2023-03-25T00:04:14;3.50;;;1.90;;
53867;SDS011;41577;47.470;19.080;2023-03-25T00:04:28;3.33;;;2.17;;
53867;SDS011;41577;47.470;19.080;2023-03-25T00:04:40;2.85;;;2.10;;
53867;SDS011;41577;47.470;19.080;2023-03-25T00:04:56;3.95;;;1.95;;
53867;SDS011;41577;47.470;19.080;2023-03-25T00:05:14;4.18;;;1.95;;
53867;SDS011;41577;47.470;19.080;2023-03-25T00:05:30;4.10;;;1.95;;
53867;SDS011;41577;47.470;19.080;2023-03-25T00:05:44;3.92;;;1.90;;
53867;SDS011;41577;47.470;19.080;2023-03-25T00:05:57;2.45;;;1.75;;
53867;SDS011;41577;47.470;19.080;2023-03-25T00:06:12;3.65;;;1.80;;
53867;SDS011;41577;47.470;19.080;2023-03-25T00:06:30;4.25;;;2.13;;
53867;SDS011;41577;47.470;19.080;2023-03-25T00:06:48;10.35;;;4.78;;
53867;SDS011;41577;47.470;19.080;2023-03-25T00:07:01;11.38;;;5.47;;
53867;SDS011;41577;47.470;19.080;2023-03-25T00:07:15;7.75;;;4.88;;
53867;SDS011;41577;47.470;19.080;2023-03-25T00:07:30;9.77;;;4.53;;
53867;SDS011;41577;47.470;19.080;2023-03-25T00:07:45;12.02;;;5.03;;
53867;SDS011;41577;47.470;19.080;2023-03-25T00:08:00;9.27;;;5.03;;
53867;SDS011;41577;47.470;19.080;2023-03-25T00:08:13;6.22;;;4.35;;
53867;SDS011;41577;47.470;19.080;2023-03-25T00:08:26;8.68;;;4.75;;
53867;SDS011;41577;47.470;19.080;2023-03-25T00:08:41;9.82;;;4.85;;
53867;SDS011;41577;47.470;19.080;2023-03-25T00:08:53;9.82;;;4.88;;
53867;SDS011;41577;47.470;19.080;2023-03-25T00:09:06;7.68;;;4.05;;
53867;SDS011;41577;47.470;19.080;2023-03-25T00:09:19;5.78;;;2.70;;
53867;SDS011;41577;47.470;19.080;2023-03-25T00:09:36;4.50;;;1.65;;
53867;SDS011;41577;47.470;19.080;2023-03-25T00:09:53;3.60;;;1.35;;
53867;SDS011;41577;47.470;19.080;2023-03-25T00:10:08;3.10;;;1.45;;
53867;SDS011;41577;47.470;19.080;2023-03-25T00:10:21;2.10;;;1.40;;
53867;SDS011;41577;47.470;19.080;2023-03-25T00:10:33;1.70;;;1.30;;
53867;SDS011;41577;47.470;19.080;2023-03-25T00:10:50;3.05;;;1.10;;
53867;SDS011;41577;47.470;19.080;2023-03-25T00:11:04;4.05;;;1.10;;
53867;SDS011;41577;47.470;19.080;2023-03-25T00:11:18;2.28;;;1.33;;
53867;SDS011;41577;47.470;19.080;2023-03-25T00:11:34;1.70;;;1.50;;
53867;SDS011;41577;47.470;19.080;2023-03-25T00:11:48;2.00;;;1.50;;
53867;SDS011;41577;47.470;19.080;2023-03-25T00:12:00;3.70;;;1.40;;
53867;SDS011;41577;47.470;19.080;2023-03-25T00:12:14;3.00;;;1.10;;
53867;SDS011;41577;47.470;19.080;2023-03-25T00:12:30;1.90;;;0.80;;
53867;SDS011;41577;47.470;19.080;2023-03-25T00:12:43;2.17;;;0.90;;
53867;SDS011;41577;47.470;19.080;2023-03-25T00:12:56;3.90;;;1.10;;
53867;SDS011;41577;47.470;19.080;2023-03-25T00:13:09;4.60;;;1.20;;
53867;SDS011;41577;47.470;19.080;2023-03-25T00:13:26;2.90;;;1.35;;
53867;SDS011;41577;47.470;19.080;2023-03-25T00:13:39;2.05;;;1.23;;
53867;SDS011;41577;47.470;19.080;2023-03-25T00:13:52;3.35;;;0.98;;
53867;SDS011;41577;47.470;19.080;2023-03-25T00:14:05;2.92;;;0.80;;
53867;SDS011;41577;47.470;19.080;2023-03-25T00:14:21;2.20;;;0.80;;
53867;SDS011;41577;47.470;19.080;2023-03-25T00:14:34;3.63;;;0.82;;
53867;SDS011;41577;47.470;19.080;2023-03-25T00:14:48;3.60;;;0.93;;
53867;SDS011;41577;47.470;19.080;2023-03-25T00:15:02;1.92;;;0.90;;
53867;SDS011;41577;47.470;19.080;2023-03-25T00:15:16;3.75;;;0.80;;
53867;SDS011;41577;47.470;19.080;2023-03-25T00:15:30;6.30;;;1.00;;
53867;SDS011;41577;47.470;19.080;2023-03-25T00:15:42;4.93;;;0.95;;
53867;SDS011;41577;47.470;19.080;2023-03-25T00:15:55;2.15;;;1.00;;
53867;SDS011;41577;47.470;19.080;2023-03-25T00:16:09;3.33;;;1.20;;
53867;SDS011;41577;47.470;19.080;2023-03-25T00:16:25;6.07;;;1.00;;
53867;SDS011;41577;47.470;19.080;2023-03-25T00:16:37;5.15;;;0.90;;
53867;SDS011;41577;47.470;19.080;2023-03-25T00:16:53;2.10;;;0.70;;
53867;SDS011;41577;47.470;19.080;2023-03-25T00:17:05;2.78;;;0.80;;
53867;SDS011;41577;47.470;19.080;2023-03-25T00:17:18;3.70;;;0.80;;
53867;SDS011;41577;47.470;19.080;2023-03-25T00:17:31;2.60;;;0.68;;
53867;SDS011;41577;47.470;19.080;2023-03-25T00:17:45;0.70;;;0.60;;
53867;SDS011;41577;47.470;19.080;2023-03-25T00:17:57;0.80;;;0.80;;
53867;SDS011;41577;47.470;19.080;2023-03-25T00:18:12;3.33;;;0.80;;
53867;SDS011;41577;47.470;19.080;2023-03-25T00:18:26;4.22;;;0.80;;
53867;SDS011;41577;47.470;19.080;2023-03-25T00:18:41;1.60;;;0.80;;
53867;SDS011;41577;47.470;19.080;2023-03-25T00:18:53;1.45;;;0.82;;
53867;SDS011;41577;47.470;19.080;2023-03-25T00:19:06;3.92;;;0.82;;
53867;SDS011;41577;47.470;19.080;2023-03-25T00:19:18;3.65;;;0.80;;
53867;SDS011;41577;47.470;19.080;2023-03-25T00:19:30;1.92;;;0.70;;
53867;SDS011;41577;47.470;19.080;2023-03-25T00:19:42;2.22;;;0.73;;
53867;SDS011;41577;47.470;19.080;2023-03-25T00:20:00;2.00;;;0.73;;
53867;SDS011;41577;47.470;19.080;2023-03-25T00:20:14;2.05;;;0.77;;
53867;SDS011;41577;47.470;19.080;2023-03-25T00:20:26;4.57;;;0.77;;
53867;SDS011;41577;47.470;19.080;2023-03-25T00:20:39;4.00;;;0.80;;
53867;SDS011;41577;47.470;19.080;2023-03-25T00:20:52;1.27;;;0.80;;
53867;SDS011;41577;47.470;19.080;2023-03-25T00:21:05;1.77;;;0.93;;
53867;SDS011;41577;47.470;19.080;2023-03-25T00:21:23;1.85;;;0.93;;
53867;SDS011;41577;47.470;19.080;2023-03-25T00:21:36;1.17;;;1.00;;
53867;SDS011;41577;47.470;19.080;2023-03-25T00:21:53;1.98;;;0.95;;
53867;SDS011;41577;47.470;19.080;2023-03-25T00:22:07;2.50;;;0.90;;
53867;SDS011;41577;47.470;19.080;2023-03-25T00:22:20;1.95;;;0.80;;
53867;SDS011;41577;47.470;19.080;2023-03-25T00:22:33;1.80;;;0.80;;
53867;SDS011;41577;47.470;19.080;2023-03-25T00:22:47;3.28;;;0.80;;
53867;SDS011;41577;47.470;19.080;2023-03-25T00:22:59;3.80;;;1.02;;
53867;SDS011;41577;47.470;19.080;2023-03-25T00:23:13;2.58;;;1.25;;
53867;SDS011;41577;47.470;19.080;2023-03-25T00:23:30;2.60;;;1.27;;
53867;SDS011;41577;47.470;19.080;2023-03-25T00:23:43;2.45;;;1.17;;
53867;SDS011;41577;47.470;19.080;2023-03-25T00:23:55;2.15;;;0.82;;
53867;SDS011;41577;47.470;19.080;2023-03-25T00:24:09;1.30;;;0.60;;
53867;SDS011;41577;47.470;19.080;2023-03-25T00:24:24;1.02;;;0.68;;
53867;SDS011;41577;47.470;19.080;2023-03-25T00:24:37;1.20;;;0.80;;
53867;SDS011;41577;47.470;19.080;2023-03-25T00:24:52;2.67;;;1.05;;
53867;SDS011;41577;47.470;19.080;2023-03-25T00:25:05;2.60;;;1.00;;
53867;SDS011;41577;47.470;19.080;2023-03-25T00:25:19;2.10;;;0.93;;
53867;SDS011;41577;47.470;19.080;2023-03-25T00:25:32;2.65;;;1.10;;
53867;SDS011;41577;47.470;19.080;2023-03-25T00:25:46;1.50;;;1.00;;
53867;SDS011;41577;47.470;19.080;2023-03-25T00:25:59;1.17;;;0.90;;
53867;SDS011;41577;47.470;19.080;2023-03-25T00:26:12;0.93;;;0.80;;
53867;SDS011;41577;47.470;19.080;2023-03-25T00:26:25;0.85;;;0.68;;
53867;SDS011;41577;47.470;19.080;2023-03-25T00:26:37;1.05;;;0.70;;
53867;SDS011;41577;47.470;19.080;2023-03-25T00:26:50;1.65;;;0.77;;
53867;SDS011;41577;47.470;19.080;2023-03-25T00:27:03;2.08;;;0.80;;
53867;SDS011;41577;47.470;19.080;2023-03-25T00:27:16;1.70;;;0.70;;
53867;SDS011;41577;47.470;19.080;2023-03-25T00:27:31;1.30;;;0.60;;
53867;SDS011;41577;47.470;19.080;2023-03-25T00:27:53;7.00;;;0.63;;
53867;SDS011;41577;47.470;19.080;2023-03-25T00:28:06;7.75;;;0.80;;
53867;SDS011;41577;47.470;19.080;2023-03-25T00:28:18;5.88;;;1.02;;
53867;SDS011;41577;47.470;19.080;2023-03-25T00:28:33;4.10;;;1.00;;
53867;SDS011;41577;47.470;19.080;2023-03-25T00:28:47;6.32;;;0.85;;
53867;SDS011;41577;47.470;19.080;2023-03-25T00:28:59;4.10;;;0.68;;
53867;SDS011;41577;47.470;19.080;2023-03-25T00:29:11;4.25;;;0.70;;
53867;SDS011;41577;47.470;19.080;2023-03-25T00:29:24;4.40;;;0.80;;
53867;SDS011;41577;47.470;19.080;2023-03-25T00:29:37;1.58;;;0.75;;
53867;SDS011;41577;47.470;19.080;2023-03-25T00:29:51;2.03;;;0.68;;
53867;SDS011;41577;47.470;19.080;2023-03-25T00:30:06;4.85;;;0.70;;
53867;SDS011;41577;47.470;19.080;2023-03-25T00:30:19;8.32;;;0.90;;
53867;SDS011;41577;47.470;19.080;2023-03-25T00:30:33;5.47;;;0.80;;
53867;SDS011;41577;47.470;19.080;2023-03-25T00:30:46;3.47;;;0.68;;
53867;SDS011;41577;47.470;19.080;2023-03-25T00:30:58;1.30;;;0.60;;
53867;SDS011;41577;47.470;19.080;2023-03-25T00:31:12;1.00;;;0.55;;
53867;SDS011;41577;47.470;19.080;2023-03-25T00:31:30;1.50;;;0.85;;
53867;SDS011;41577;47.470;19.080;2023-03-25T00:31:42;2.05;;;1.10;;
53867;SDS011;41577;47.470;19.080;2023-03-25T00:31:55;2.65;;;1.17;;
53867;SDS011;41577;47.470;19.080;2023-03-25T00:32:11;3.85;;;1.00;;
53867;SDS011;41577;47.470;19.080;2023-03-25T00:32:25;3.50;;;1.02;;
53867;SDS011;41577;47.470;19.080;2023-03-25T00:32:38;2.17;;;0.82;;
53867;SDS011;41577;47.470;19.080;2023-03-25T00:32:51;2.10;;;0.75;;
53867;SDS011;41577;47.470;19.080;2023-03-25T00:33:04;1.52;;;0.80;;
53867;SDS011;41577;47.470;19.080;2023-03-25T00:33:17;1.00;;;0.75;;
53867;SDS011;41577;47.470;19.080;2023-03-25T00:33:29;2.80;;;0.90;;
53867;SDS011;41577;47.470;19.080;2023-03-25T00:33:43;3.10;;;0.80;;
53867;SDS011;41577;47.470;19.080;2023-03-25T00:33:56;2.80;;;0.63;;
53867;SDS011;41577;47.470;19.080;2023-03-25T00:34:09;0.63;;;0.50;;
53867;SDS011;41577;47.470;19.080;2023-03-25T00:34:22;0.60;;;0.60;;
53867;SDS011;41577;47.470;19.080;2023-03-25T00:34:35;0.70;;;0.70;;
53867;SDS011;41577;47.470;19.080;2023-03-25T00:34:47;0.70;;;0.70;;
53867;SDS011;41577;47.470;19.080;2023-03-25T00:34:59;2.17;;;0.70;;
53867;SDS011;41577;47.470;19.080;2023-03-25T00:35:12;2.25;;;0.77;;
53867;SDS011;41577;47.470;19.080;2023-03-25T00:35:27;1.60;;;0.85;;
53867;SDS011;41577;47.470;19.080;2023-03-25T00:35:40;1.55;;;0.90;;
53867;SDS011;41577;47.470;19.080;2023-03-25T00:35:53;1.30;;;0.77;;
53867;SDS011;41577;47.470;19.080;2023-03-25T00:36:06;1.35;;;0.70;;
53867;SDS011;41577;47.470;19.080;2023-03-25T00:36:20;1.50;;;0.70;;
53867;SDS011;41577;47.470;19.080;2023-03-25T00:36:33;2.20;;;0.60;;
53867;SDS011;41577;47.470;19.080;2023-03-25T00:36:47;3.47;;;0.65;;
53867;SDS011;41577;47.470;19.080;2023-03-25T00:37:00;2.20;;;0.60;;
53867;SDS011;41577;47.470;19.080;2023-03-25T00:37:14;0.60;;;0.60;;
53867;SDS011;41577;47.470;19.080;2023-03-25T00:37:27;0.70;;;0.70;;
53867;SDS011;41577;47.470;19.080;2023-03-25T00:37:40;0.88;;;0.70;;
53867;SDS011;41577;47.470;19.080;2023-03-25T00:37:53;1.10;;;0.65;;
53867;SDS011;41577;47.470;19.080;2023-03-25T00:38:06;3.13;;;0.57;;
53867;SDS011;41577;47.470;19.080;2023-03-25T00:38:19;3.90;;;0.57;;
53867;SDS011;41577;47.470;19.080;2023-03-25T00:38:32;3.33;;;0.73;;
53867;SDS011;41577;47.470;19.080;2023-03-25T00:38:47;1.85;;;0.68;;
53867;SDS011;41577;47.470;19.080;2023-03-25T00:39:00;0.85;;;0.60;;
53867;SDS011;41577;47.470;19.080;2023-03-25T00:39:12;0.70;;;0.60;;
53867;SDS011;41577;47.470;19.080;2023-03-25T00:39:28;0.60;;;0.60;;
53867;SDS011;41577;47.470;19.080;2023-03-25T00:39:42;0.85;;;0.70;;
53867;SDS011;41577;47.470;19.080;2023-03-25T00:39:55;0.88;;;0.70;;
53867;SDS011;41577;47.470;19.080;2023-03-25T00:40:08;1.35;;;0.65;;
53867;SDS011;41577;47.470;19.080;2023-03-25T00:40:21;1.20;;;0.50;;
53867;SDS011;41577;47.470;19.080;2023-03-25T00:40:33;1.38;;;0.40;;
53867;SDS011;41577;47.470;19.080;2023-03-25T00:40:46;2.13;;;0.60;;
53867;SDS011;41577;47.470;19.080;2023-03-25T00:41:06;2.75;;;0.75;;
53867;SDS011;41577;47.470;19.080;2023-03-25T00:41:21;2.25;;;0.70;;
53867;SDS011;41577;47.470;19.080;2023-03-25T00:41:35;0.77;;;0.45;;
53867;SDS011;41577;47.470;19.080;2023-03-25T00:41:51;1.10;;;0.70;;
53867;SDS011;41577;47.470;19.080;2023-03-25T00:42:04;1.75;;;0.80;;
53867;SDS011;41577;47.470;19.080;2023-03-25T00:42:17;1.73;;;0.68;;
53867;SDS011;41577;47.470;19.080;2023-03-25T00:42:30;0.85;;;0.60;;
53867;SDS011;41577;47.470;19.080;2023-03-25T00:42:44;0.95;;;0.65;;
53867;SDS011;41577;47.470;19.080;2023-03-25T00:42:57;1.73;;;0.88;;
53867;SDS011;41577;47.470;19.080;2023-03-25T00:43:10;2.03;;;0.82;;
53867;SDS011;41577;47.470;19.080;2023-03-25T00:43:22;2.60;;;0.90;;
53867;SDS011;41577;47.470;19.080;2023-03-25T00:43:35;3.05;;;0.85;;
53867;SDS011;41577;47.470;19.080;2023-03-25T00:43:47;2.75;;;0.80;;
53867;SDS011;41577;47.470;19.080;2023-03-25T00:44:03;1.30;;;0.90;;
53867;SDS011;41577;47.470;19.080;2023-03-25T00:44:16;1.67;;;0.85;;
53867;SDS011;41577;47.470;19.080;2023-03-25T00:44:28;1.67;;;0.77;;
53867;SDS011;41577;47.470;19.080;2023-03-25T00:44:41;2.53;;;0.82;;
53867;SDS011;41577;47.470;19.080;2023-03-25T00:44:53;10.35;;;0.90;;
53867;SDS011;41577;47.470;19.080;2023-03-25T00:45:06;10.10;;;0.90;;
53867;SDS011;41577;47.470;19.080;2023-03-25T00:45:19;4.65;;;0.68;;
53867;SDS011;41577;47.470;19.080;2023-03-25T00:45:32;2.78;;;0.60;;
53867;SDS011;41577;47.470;19.080;2023-03-25T00:45:45;0.95;;;0.50;;
53867;SDS011;41577;47.470;19.080;2023-03-25T00:45:57;1.77;;;0.60;;
53867;SDS011;41577;47.470;19.080;2023-03-25T00:46:09;3.53;;;0.70;;
53867;SDS011;41577;47.470;19.080;2023-03-25T00:46:22;4.00;;;0.70;;
53867;SDS011;41577;47.470;19.080;2023-03-25T00:46:35;3.28;;;0.70;;
53867;SDS011;41577;47.470;19.080;2023-03-25T00:46:48;4.22;;;0.80;;
53867;SDS011;41577;47.470;19.080;2023-03-25T00:47:03;3.80;;;0.90;;
53867;SDS011;41577;47.470;19.080;2023-03-25T00:47:16;2.25;;;0.77;;
53867;SDS011;41577;47.470;19.080;2023-03-25T00:47:29;3.90;;;0.95;;
53867;SDS011;41577;47.470;19.080;2023-03-25T00:47:42;4.13;;;1.00;;
53867;SDS011;41577;47.470;19.080;2023-03-25T00:47:56;2.22;;;0.68;;
53867;SDS011;41577;47.470;19.080;2023-03-25T00:48:08;1.20;;;0.70;;
53867;SDS011;41577;47.470;19.080;2023-03-25T00:48:21;0.80;;;0.63;;
53867;SDS011;41577;47.470;19.080;2023-03-25T00:48:32;0.80;;;0.70;;
53867;SDS011;41577;47.470;19.080;2023-03-25T00:48:45;0.80;;;0.70;;
53867;SDS011;41577;47.470;19.080;2023-03-25T00:48:58;0.80;;;0.60;;
53867;SDS011;41577;47.470;19.080;2023-03-25T00:49:11;0.68;;;0.50;;
53867;SDS011;41577;47.470;19.080;2023-03-25T00:49:24;3.83;;;0.57;;
53867;SDS011;41577;47.470;19.080;2023-03-25T00:49:37;5.85;;;0.88;;
53867;SDS011;41577;47.470;19.080;2023-03-25T00:49:49;3.90;;;1.02;;
53867;SDS011;41577;47.470;19.080;2023-03-25T00:50:01;2.05;;;0.80;;
53867;SDS011;41577;47.470;19.080;2023-03-25T00:50:14;2.03;;;0.80;;
53867;SDS011;41577;47.470;19.080;2023-03-25T00:50:27;3.53;;;1.15;;
53867;SDS011;41577;47.470;19.080;2023-03-25T00:50:40;3.10;;;1.17;;
53867;SDS011;41577;47.470;19.080;2023-03-25T00:50:52;2.15;;;0.80;;
53867;SDS011;41577;47.470;19.080;2023-03-25T00:51:06;1.67;;;0.63;;
53867;SDS011;41577;47.470;19.080;2023-03-25T00:51:20;1.95;;;0.65;;
53867;SDS011;41577;47.470;19.080;2023-03-25T00:51:33;1.27;;;0.80;;
53867;SDS011;41577;47.470;19.080;2023-03-25T00:52:03;0.88;;;0.55;;
53867;SDS011;41577;47.470;19.080;2023-03-25T00:52:18;0.55;;;0.55;;
53867;SDS011;41577;47.470;19.080;2023-03-25T00:52:31;1.45;;;0.80;;
53867;SDS011;41577;47.470;19.080;2023-03-25T00:52:48;1.83;;;0.80;;
53867;SDS011;41577;47.470;19.080;2023-03-25T00:53:01;1.13;;;0.77;;
53867;SDS011;41577;47.470;19.080;2023-03-25T00:53:14;1.95;;;0.77;;
53867;SDS011;41577;47.470;19.080;2023-03-25T00:53:26;2.20;;;0.68;;
53867;SDS011;41577;47.470;19.080;2023-03-25T00:53:39;1.63;;;0.70;;
53867;SDS011;41577;47.470;19.080;2023-03-25T00:53:54;1.73;;;0.77;;
53867;SDS011;41577;47.470;19.080;2023-03-25T00:54:07;1.52;;;0.70;;
53867;SDS011;41577;47.470;19.080;2023-03-25T00:54:20;1.80;;;0.75;;
53867;SDS011;41577;47.470;19.080;2023-03-25T00:54:35;1.13;;;0.65;;
53867;SDS011;41577;47.470;19.080;2023-03-25T00:54:48;1.65;;;0.68;;
53867;SDS011;41577;47.470;19.080;2023-03-25T00:55:01;2.90;;;0.75;;
53867;SDS011;41577;47.470;19.080;2023-03-25T00:55:13;4.55;;;0.80;;
53867;SDS011;41577;47.470;19.080;2023-03-25T00:55:28;4.38;;;0.90;;
53867;SDS011;41577;47.470;19.080;2023-03-25T00:55:42;1.50;;;0.75;;
53867;SDS011;41577;47.470;19.080;2023-03-25T00:55:56;0.60;;;0.60;;
53867;SDS011;41577;47.470;19.080;2023-03-25T00:56:08;1.08;;;0.70;;
53867;SDS011;41577;47.470;19.080;2023-03-25T00:56:21;1.25;;;0.70;;
53867;SDS011;41577;47.470;19.080;2023-03-25T00:56:34;1.13;;;0.80;;
53867;SDS011;41577;47.470;19.080;2023-03-25T00:56:46;2.85;;;0.70;;
53867;SDS011;41577;47.470;19.080;2023-03-25T00:56:59;4.18;;;0.70;;
53867;SDS011;41577;47.470;19.080;2023-03-25T00:57:12;3.80;;;0.70;;
53867;SDS011;41577;47.470;19.080;2023-03-25T00:57:26;3.25;;;0.80;;
53867;SDS011;41577;47.470;19.080;2023-03-25T00:57:40;1.50;;;0.70;;
53867;SDS011;41577;47.470;19.080;2023-03-25T00:57:52;4.07;;;0.70;;
53867;SDS011;41577;47.470;19.080;2023-03-25T00:58:06;4.85;;;0.90;;
53867;SDS011;41577;47.470;19.080;2023-03-25T00:58:19;1.92;;;0.88;;
53867;SDS011;41577;47.470;19.080;2023-03-25T00:58:31;1.67;;;0.77;;
53867;SDS011;41577;47.470;19.080;2023-03-25T00:58:44;3.28;;;0.80;;
53867;SDS011;41577;47.470;19.080;2023-03-25T00:58:58;6.00;;;1.00;;
53867;SDS011;41577;47.470;19.080;2023-03-25T00:59:10;4.40;;;0.85;;
53867;SDS011;41577;47.470;19.080;2023-03-25T00:59:23;1.75;;;0.60;;
53867;SDS011;41577;47.470;19.080;2023-03-25T00:59:35;2.78;;;0.60;;
53867;SDS011;41577;47.470;19.080;2023-03-25T00:59:48;4.07;;;0.73;;
53867;SDS011;41577;47.470;19.080;2023-03-25T01:00:03;3.50;;;0.80;;
53867;SDS011;41577;47.470;19.080;2023-03-25T01:00:19;2.40;;;0.68;;
53867;SDS011;41577;47.470;19.080;2023-03-25T01:00:31;2.25;;;0.68;;
53867;SDS011;41577;47.470;19.080;2023-03-25T01:00:43;3.25;;;0.93;;
53867;SDS011;41577;47.470;19.080;2023-03-25T01:00:55;3.00;;;0.98;;
53867;SDS011;41577;47.470;19.080;2023-03-25T01:01:09;1.88;;;0.70;;
53867;SDS011;41577;47.470;19.080;2023-03-25T01:01:23;3.10;;;0.70;;
53867;SDS011;41577;47.470;19.080;2023-03-25T01:01:36;2.58;;;0.68;;
53867;SDS011;41577;47.470;19.080;2023-03-25T01:01:51;2.50;;;0.70;;
53867;SDS011;41577;47.470;19.080;2023-03-25T01:02:03;2.88;;;0.82;;
53867;SDS011;41577;47.470;19.080;2023-03-25T01:02:16;2.25;;;0.90;;
53867;SDS011;41577;47.470;19.080;2023-03-25T01:02:29;1.10;;;0.80;;
53867;SDS011;41577;47.470;19.080;2023-03-25T01:02:41;0.60;;;0.60;;
53867;SDS011;41577;47.470;19.080;2023-03-25T01:02:55;1.73;;;0.70;;
53867;SDS011;41577;47.470;19.080;2023-03-25T01:03:09;2.00;;;0.68;;
53867;SDS011;41577;47.470;19.080;2023-03-25T01:03:23;1.67;;;0.70;;
53867;SDS011;41577;47.470;19.080;2023-03-25T01:03:36;1.55;;;0.70;;
53867;SDS011;41577;47.470;19.080;2023-03-25T01:03:51;1.65;;;0.73;;
53867;SDS011;41577;47.470;19.080;2023-03-25T01:04:04;2.55;;;0.80;;
53867;SDS011;41577;47.470;19.080;2023-03-25T01:04:17;2.53;;;0.63;;
53867;SDS011;41577;47.470;19.080;2023-03-25T01:04:30;2.13;;;0.63;;
53867;SDS011;41577;47.470;19.080;2023-03-25T01:04:42;1.50;;;0.65;;
53867;SDS011;41577;47.470;19.080;2023-03-25T01:04:54;2.45;;;0.60;;
53867;SDS011;41577;47.470;19.080;2023-03-25T01:05:09;3.22;;;0.55;;
53867;SDS011;41577;47.470;19.080;2023-03-25T01:05:24;4.82;;;0.68;;
53867;SDS011;41577;47.470;19.080;2023-03-25T01:05:38;9.45;;;0.82;;
53867;SDS011;41577;47.470;19.080;2023-03-25T01:05:51;11.32;;;1.00;;
53867;SDS011;41577;47.470;19.080;2023-03-25T01:06:03;10.95;;;0.90;;
53867;SDS011;41577;47.470;19.080;2023-03-25T01:06:22;14.73;;;1.02;;
53867;SDS011;41577;47.470;19.080;2023-03-25T01:06:37;9.95;;;1.10;;
53867;SDS011;41577;47.470;19.080;2023-03-25T01:06:50;7.00;;;0.80;;
53867;SDS011;41577;47.470;19.080;2023-03-25T01:07:03;9.82;;;0.90;;
53867;SDS011;41577;47.470;19.080;2023-03-25T01:07:15;18.30;;;1.38;;
53867;SDS011;41577;47.470;19.080;2023-03-25T01:07:29;19.58;;;1.60;;
53867;SDS011;41577;47.470;19.080;2023-03-25T01:07:41;11.70;;;1.13;;
53867;SDS011;41577;47.470;19.080;2023-03-25T01:07:54;8.65;;;1.00;;
53867;SDS011;41577;47.470;19.080;2023-03-25T01:08:07;12.63;;;1.10;;
53867;SDS011;41577;47.470;19.080;2023-03-25T01:08:20;15.70;;;1.10;;
53867;SDS011;41577;47.470;19.080;2023-03-25T01:08:33;17.60;;;1.17;;
53867;SDS011;41577;47.470;19.080;2023-03-25T01:08:45;14.73;;;1.10;;
53867;SDS011;41577;47.470;19.080;2023-03-25T01:09:01;13.23;;;1.13;;
53867;SDS011;41577;47.470;19.080;2023-03-25T01:09:15;11.95;;;1.25;;
53867;SDS011;41577;47.470;19.080;2023-03-25T01:09:27;11.65;;;1.02;;
53867;SDS011;41577;47.470;19.080;2023-03-25T01:09:40;13.60;;;1.10;;
53867;SDS011;41577;47.470;19.080;2023-03-25T01:09:52;14.05;;;1.15;;
53867;SDS011;41577;47.470;19.080;2023-03-25T01:10:06;7.50;;;1.02;;
53867;SDS011;41577;47.470;19.080;2023-03-25T01:10:19;8.30;;;1.10;;
53867;SDS011;41577;47.470;19.080;2023-03-25T01:10:32;6.93;;;1.08;;
53867;SDS011;41577;47.470;19.080;2023-03-25T01:10:46;9.57;;;1.10;;
53867;SDS011;41577;47.470;19.080;2023-03-25T01:10:58;10.88;;;1.02;;
53867;SDS011;41577;47.470;19.080;2023-03-25T01:11:15;8.75;;;1.10;;
53867;SDS011;41577;47.470;19.080;2023-03-25T01:11:30;4.07;;;1.17;;
53867;SDS011;41577;47.470;19.080;2023-03-25T01:11:45;3.00;;;0.93;;
53867;SDS011;41577;47.470;19.080;2023-03-25T01:12:01;3.13;;;0.90;;
53867;SDS011;41577;47.470;19.080;2023-03-25T01:12:14;4.97;;;0.90;;
53867;SDS011;41577;47.470;19.080;2023-03-25T01:12:27;4.65;;;1.00;;
53867;SDS011;41577;47.470;19.080;2023-03-25T01:12:40;3.67;;;1.02;;
53867;SDS011;41577;47.470;19.080;2023-03-25T01:12:52;4.85;;;1.05;;
53867;SDS011;41577;47.470;19.080;2023-03-25T01:13:05;7.40;;;1.08;;
53867;SDS011;41577;47.470;19.080;2023-03-25T01:13:17;8.27;;;1.02;;
53867;SDS011;41577;47.470;19.080;2023-03-25T01:13:30;7.45;;;1.10;;
53867;SDS011;41577;47.470;19.080;2023-03-25T01:13:44;5.95;;;1.00;;
53867;SDS011;41577;47.470;19.080;2023-03-25T01:13:56;3.83;;;0.85;;
53867;SDS011;41577;47.470;19.080;2023-03-25T01:14:10;2.30;;;0.85;;
53867;SDS011;41577;47.470;19.080;2023-03-25T01:14:24;2.50;;;0.98;;
53867;SDS011;41577;47.470;19.080;2023-03-25T01:14:36;3.40;;;0.95;;
53867;SDS011;41577;47.470;19.080;2023-03-25T01:14:51;4.78;;;1.10;;
53867;SDS011;41577;47.470;19.080;2023-03-25T01:15:06;3.17;;;0.93;;
53867;SDS011;41577;47.470;19.080;2023-03-25T01:15:24;3.30;;;0.95;;
53867;SDS011;41577;47.470;19.080;2023-03-25T01:15:38;7.55;;;1.50;;
53867;SDS011;41577;47.470;19.080;2023-03-25T01:15:53;8.32;;;1.90;;
53867;SDS011;41577;47.470;19.080;2023-03-25T01:16:06;6.88;;;1.60;;
53867;SDS011;41577;47.470;19.080;2023-03-25T01:16:18;9.38;;;1.40;;
53867;SDS011;41577;47.470;19.080;2023-03-25T01:16:31;9.45;;;1.40;;
53867;SDS011;41577;47.470;19.080;2023-03-25T01:16:44;6.68;;;1.10;;
53867;SDS011;41577;47.470;19.080;2023-03-25T01:16:57;10.70;;;0.93;;
53867;SDS011;41577;47.470;19.080;2023-03-25T01:17:13;9.93;;;1.05;;
53867;SDS011;41577;47.470;19.080;2023-03-25T01:17:26;9.73;;;1.30;;
53867;SDS011;41577;47.470;19.080;2023-03-25T01:17:39;20.10;;;1.40;;
53867;SDS011;41577;47.470;19.080;2023-03-25T01:17:51;18.80;;;1.48;;
53867;SDS011;41577;47.470;19.080;2023-03-25T01:18:05;7.45;;;1.08;;
53867;SDS011;41577;47.470;19.080;2023-03-25T01:18:17;11.32;;;0.90;;
53867;SDS011;41577;47.470;19.080;2023-03-25T01:18:29;13.65;;;1.08;;
53867;SDS011;41577;47.470;19.080;2023-03-25T01:18:44;11.82;;;1.40;;
53867;SDS011;41577;47.470;19.080;2023-03-25T01:18:56;11.60;;;1.40;;
53867;SDS011;41577;47.470;19.080;2023-03-25T01:19:09;11.68;;;1.17;;
53867;SDS011;41577;47.470;19.080;2023-03-25T01:19:22;12.60;;;1.40;;
53867;SDS011;41577;47.470;19.080;2023-03-25T01:19:37;11.57;;;1.60;;
53867;SDS011;41577;47.470;19.080;2023-03-25T01:19:50;9.30;;;1.35;;
53867;SDS011;41577;47.470;19.080;2023-03-25T01:20:03;5.82;;;1.17;;
53867;SDS011;41577;47.470;19.080;2023-03-25T01:20:16;6.10;;;1.30;;
53867;SDS011;41577;47.470;19.080;2023-03-25T01:20:31;5.00;;;1.40;;
53867;SDS011;41577;47.470;19.080;2023-03-25T01:20:47;6.13;;;1.00;;
53867;SDS011;41577;47.470;19.080;2023-03-25T01:21:01;6.13;;;1.00;;